createdAt,value
2023-11-20T00:01:35.114Z,100175.69
2023-11-20T00:04:38.289Z,100172.47
2023-11-20T00:07:42.009Z,100172.59
2023-11-20T00:10:47.455Z,100198.28
2023-11-20T00:13:49.883Z,100201.44
2023-11-20T00:16:53.414Z,100193.06
2023-11-20T00:19:56.804Z,100197.34
2023-11-20T00:22:59.262Z,100201.94
2023-11-20T00:26:01.750Z,100180.44
2023-11-20T00:29:07.505Z,100188.97
2023-11-20T00:32:09.918Z,100189.88
2023-11-20T00:35:12.268Z,100195.91
2023-11-20T00:38:14.570Z,100193.63
2023-11-20T00:41:19.468Z,100192.41
2023-11-20T00:44:21.815Z,100202.72
2023-11-20T00:47:25.695Z,100242.59
2023-11-20T00:50:28.308Z,100246.25
2023-11-20T00:53:30.645Z,100239.16
2023-11-20T00:56:33.270Z,100235.19
2023-11-20T00:59:35.869Z,100234.97
2023-11-20T01:02:39.142Z,100206.56
2023-11-20T01:05:43.535Z,100186.72
2023-11-20T01:08:45.976Z,100175.91
2023-11-20T01:11:48.378Z,100182.66
2023-11-20T01:14:50.858Z,100167.69
2023-11-20T01:17:53.410Z,100157.59
2023-11-20T01:20:55.762Z,100164.25
2023-11-20T01:23:58.093Z,100186.13
2023-11-20T01:27:00.522Z,100185.91
2023-11-20T01:30:03.102Z,100202.88
2023-11-20T01:33:05.525Z,100203.03
2023-11-20T01:36:08.318Z,100186.75
2023-11-20T01:39:12.409Z,100191.53
2023-11-20T01:42:14.991Z,100185.63
2023-11-20T01:45:17.479Z,100186.63
2023-11-20T01:48:21.074Z,100191.34
2023-11-20T01:51:25.871Z,100185.97
2023-11-20T01:54:29.775Z,100183.91
2023-11-20T01:57:32.206Z,100184.56
2023-11-20T02:00:37.908Z,100185.59
2023-11-20T02:03:40.481Z,100176.66
2023-11-20T02:06:43.667Z,100185.72
2023-11-20T02:09:47.159Z,100172.16
2023-11-20T02:12:50.830Z,100169.66
2023-11-20T02:15:53.524Z,100178.56
2023-11-20T02:18:55.955Z,100173.69
2023-11-20T02:21:58.775Z,100173.59
2023-11-20T02:25:01.329Z,100184.16
2023-11-20T02:28:28.035Z,100180.31
2023-11-20T02:31:34.441Z,100187.06
2023-11-20T02:34:39.226Z,100188.75
2023-11-20T02:37:42.101Z,100198.22
2023-11-20T02:40:49.421Z,100185.19
2023-11-20T02:43:52.881Z,100185.69
2023-11-20T02:46:55.291Z,100183.31
2023-11-20T02:49:57.837Z,100181.84
2023-11-20T02:53:00.225Z,100165.34
2023-11-20T02:56:03.473Z,100175.34
2023-11-20T02:59:05.972Z,100158.84
2023-11-20T03:02:08.428Z,100181.34
2023-11-20T03:05:10.855Z,100175.44
2023-11-20T03:08:13.562Z,100177.38
2023-11-20T03:11:15.927Z,100175.34
2023-11-20T03:14:21.531Z,100182.13
2023-11-20T03:17:24.500Z,100175.75
2023-11-20T03:20:27.171Z,100171.63
2023-11-20T03:23:31.991Z,100167.13
2023-11-20T03:26:34.452Z,100165.72
2023-11-20T03:29:37.400Z,100152.56
2023-11-20T03:32:39.959Z,100158.63
2023-11-20T03:35:42.355Z,100149.97
2023-11-20T03:38:45.738Z,100159.06
2023-11-20T03:41:48.585Z,100156.13
2023-11-20T03:44:52.166Z,100145.69
2023-11-20T03:47:54.507Z,100131.56
2023-11-20T03:50:56.872Z,100119.72
2023-11-20T03:53:59.272Z,100103.84
2023-11-20T03:57:01.579Z,100108.84
2023-11-20T04:00:06.047Z,100104.25
2023-11-20T04:03:08.492Z,100094.84
2023-11-20T04:06:10.907Z,100113.88
2023-11-20T04:09:15.821Z,100105.34
2023-11-20T04:12:19.471Z,100100.94
2023-11-20T04:15:23.719Z,100109.13
2023-11-20T04:18:26.087Z,100109.94
2023-11-20T04:21:31.222Z,100105.72
2023-11-20T04:24:34.481Z,100107.88
2023-11-20T04:27:37.102Z,100110.66
2023-11-20T04:30:40.076Z,100117.44
2023-11-20T04:33:49.759Z,100116.09
2023-11-20T04:36:53.274Z,100111.09
2023-11-20T04:39:55.921Z,100129.22
2023-11-20T04:42:58.335Z,100118.78
2023-11-20T04:46:00.942Z,100130.84
2023-11-20T04:49:03.329Z,100140.00
2023-11-20T04:52:06.074Z,100125.81
2023-11-20T04:55:09.817Z,100130.06
2023-11-20T04:58:12.260Z,100136.22
2023-11-20T05:01:17.735Z,100140.06
2023-11-20T05:04:24.985Z,100141.59
2023-11-20T05:07:27.537Z,100127.53
2023-11-20T05:10:29.875Z,100123.13
2023-11-20T05:13:32.266Z,100120.97
2023-11-20T05:16:37.284Z,100114.84
2023-11-20T05:19:39.615Z,100106.94
2023-11-20T05:22:42.002Z,100106.53
2023-11-20T05:25:44.438Z,100113.03
2023-11-20T05:28:46.883Z,100114.34
2023-11-20T05:31:51.410Z,100124.38
2023-11-20T05:34:53.748Z,100115.47
2023-11-20T05:37:56.087Z,100115.75
2023-11-20T05:40:58.936Z,100133.00
2023-11-20T05:44:01.374Z,100124.63
2023-11-20T05:47:10.136Z,100139.38
2023-11-20T05:50:12.516Z,100139.31
2023-11-20T05:53:14.868Z,100147.19
2023-11-20T05:56:17.195Z,100148.63
2023-11-20T05:59:19.692Z,100131.94
2023-11-20T06:02:29.319Z,100132.44
2023-11-20T06:05:32.092Z,100140.66
2023-11-20T06:08:38.372Z,100129.88
2023-11-20T06:11:43.810Z,100136.94
2023-11-20T06:14:52.186Z,100141.56
2023-11-20T06:17:54.852Z,100137.88
2023-11-20T06:20:57.226Z,100141.09
2023-11-20T06:23:59.647Z,100149.47
2023-11-20T06:27:01.982Z,100134.28
2023-11-20T06:30:07.674Z,100152.91
2023-11-20T06:33:10.048Z,100151.84
2023-11-20T06:36:13.042Z,100147.22
2023-11-20T06:39:15.361Z,100157.84
2023-11-20T06:42:17.754Z,100170.53
2023-11-20T06:45:22.540Z,100183.22
2023-11-20T06:48:24.998Z,100184.94
2023-11-20T06:51:31.197Z,100178.63
2023-11-20T06:54:34.702Z,100172.72
2023-11-20T06:57:37.104Z,100194.91
2023-11-20T07:00:39.518Z,100183.81
2023-11-20T07:03:45.861Z,100186.28
2023-11-20T07:06:50.695Z,100188.47
2023-11-20T07:09:53.485Z,100171.47
2023-11-20T07:12:57.962Z,100176.06
2023-11-20T07:16:00.975Z,100167.25
2023-11-20T07:19:03.658Z,100142.41
2023-11-20T07:22:09.411Z,100170.13
2023-11-20T07:25:12.593Z,100167.28
2023-11-20T07:28:18.315Z,100163.81
2023-11-20T07:31:32.666Z,100171.81
2023-11-20T07:34:37.476Z,100165.53
2023-11-20T07:37:41.147Z,100151.72
2023-11-20T07:40:55.748Z,100153.00
2023-11-20T07:44:01.982Z,100146.78
2023-11-20T07:47:11.804Z,100166.34
2023-11-20T07:50:15.952Z,100165.81
2023-11-20T07:53:19.321Z,100171.31
2023-11-20T07:56:21.703Z,100165.88
2023-11-20T07:59:24.696Z,100157.88
2023-11-20T08:02:28.066Z,100147.63
2023-11-20T08:05:40.997Z,100163.53
2023-11-20T08:08:47.504Z,100164.19
2023-11-20T08:11:53.941Z,100168.75
2023-11-20T08:14:56.356Z,100158.75
2023-11-20T08:17:58.699Z,100153.53
2023-11-20T08:21:01.112Z,100172.19
2023-11-20T08:24:03.588Z,100151.44
2023-11-20T08:27:06.915Z,100158.19
2023-11-20T08:30:09.815Z,100150.94
2023-11-20T08:33:12.351Z,100157.34
2023-11-20T08:36:15.273Z,100159.66
2023-11-20T08:39:26.344Z,100158.09
2023-11-20T08:42:34.775Z,100153.41
2023-11-20T08:45:39.830Z,100169.44
2023-11-20T08:48:42.178Z,100167.88
2023-11-20T08:51:49.091Z,100154.50
2023-11-20T08:54:58.384Z,100166.31
2023-11-20T08:58:00.801Z,100161.88
2023-11-20T09:01:03.421Z,100154.28
2023-11-20T09:04:11.597Z,100158.75
2023-11-20T09:07:14.500Z,100142.25
2023-11-20T09:10:24.407Z,100151.69
2023-11-20T09:13:26.941Z,100153.78
2023-11-20T09:16:29.509Z,100165.03
2023-11-20T09:19:34.012Z,100145.00
2023-11-20T09:22:36.328Z,100143.81
2023-11-20T09:25:40.309Z,100141.63
2023-11-20T09:28:43.591Z,100135.38
2023-11-20T09:31:49.062Z,100130.53
2023-11-20T09:34:51.624Z,100122.03
2023-11-20T09:37:54.942Z,100129.53
2023-11-20T09:40:59.969Z,100134.22
2023-11-20T09:44:05.004Z,100128.13
2023-11-20T09:47:08.492Z,100120.25
2023-11-20T09:50:12.245Z,100141.94
2023-11-20T09:53:20.565Z,100119.56
2023-11-20T09:56:23.072Z,100113.91
2023-11-20T09:59:26.610Z,100113.50
2023-11-20T10:02:30.162Z,100107.19
2023-11-20T10:05:37.780Z,100098.69
2023-11-20T10:08:47.751Z,100113.19
2023-11-20T10:11:54.315Z,100099.38
2023-11-20T10:15:04.589Z,100099.09
2023-11-20T10:18:07.353Z,100098.66
2023-11-20T10:21:09.814Z,100100.94
2023-11-20T10:24:18.695Z,100103.19
2023-11-20T10:27:34.361Z,100092.06
2023-11-20T10:30:37.215Z,100095.75
2023-11-20T10:33:39.818Z,100085.34
2023-11-20T10:36:42.218Z,100083.38
2023-11-20T10:39:45.163Z,100080.72
2023-11-20T10:42:47.935Z,100064.00
2023-11-20T10:45:52.997Z,100058.16
2023-11-20T10:49:30.084Z,100060.09
2023-11-20T10:52:32.749Z,100046.78
2023-11-20T10:55:51.635Z,100047.38
2023-11-20T10:58:55.901Z,100044.13
2023-11-20T11:01:59.180Z,100051.75
2023-11-20T11:05:07.959Z,100048.88
2023-11-20T11:08:15.290Z,100052.31
2023-11-20T11:11:18.324Z,100049.56
2023-11-20T11:14:20.665Z,100043.88
2023-11-20T11:17:26.042Z,100052.13
2023-11-20T11:21:12.864Z,100042.81
2023-11-20T11:24:17.076Z,100038.19
2023-11-20T11:27:28.689Z,100028.31
2023-11-20T11:30:38.046Z,100022.50
2023-11-20T11:34:02.155Z,100043.44
2023-11-20T11:37:11.112Z,100024.56
2023-11-20T11:40:24.916Z,100031.16
2023-11-20T11:43:39.893Z,100023.66
2023-11-20T11:46:56.470Z,100031.00
2023-11-20T11:49:59.168Z,100022.75
2023-11-20T11:53:01.635Z,100022.16
2023-11-20T11:56:11.154Z,100016.13
2023-11-20T11:59:36.855Z,100008.44
2023-11-20T12:02:51.338Z,99993.47
2023-11-20T12:05:58.227Z,99993.56
2023-11-20T12:09:06.032Z,99996.38
2023-11-20T12:12:11.417Z,99995.16
2023-11-20T12:15:51.988Z,100003.19
2023-11-20T12:18:57.569Z,99994.81
2023-11-20T12:22:00.967Z,100000.03
2023-11-20T12:25:03.757Z,100004.78
2023-11-20T12:28:09.221Z,100003.63
2023-11-20T12:31:13.954Z,99997.16
2023-11-20T12:34:18.256Z,99994.63
2023-11-20T12:37:22.031Z,99991.38
2023-11-20T12:40:25.923Z,99982.31
2023-11-20T12:43:29.994Z,99981.31
2023-11-20T12:46:34.989Z,99975.59
2023-11-20T12:49:37.556Z,99976.09
2023-11-20T12:52:41.644Z,99972.72
2023-11-20T12:55:45.455Z,99980.97
2023-11-20T12:58:51.035Z,99984.31
2023-11-20T13:01:53.684Z,99976.41
2023-11-20T13:04:56.265Z,99974.16
2023-11-20T13:08:03.985Z,99975.56
2023-11-20T13:11:08.844Z,99986.41
2023-11-20T13:14:11.156Z,99984.16
2023-11-20T13:17:13.501Z,99982.00
2023-11-20T13:20:45.749Z,99976.38
2023-11-20T13:24:03.939Z,99978.25
2023-11-20T13:27:08.240Z,99961.56
2023-11-20T13:30:21.577Z,99974.22
2023-11-20T13:33:25.901Z,99963.53
2023-11-20T13:36:29.418Z,99969.91
2023-11-20T13:39:33.074Z,99964.38
2023-11-20T13:42:39.968Z,99971.47
2023-11-20T13:45:43.808Z,99965.94
2023-11-20T13:48:48.557Z,99977.44
2023-11-20T13:51:52.558Z,99968.47
2023-11-20T13:54:57.369Z,99954.25
2023-11-20T13:57:59.718Z,99964.75
2023-11-20T14:01:03.298Z,99975.88
2023-11-20T14:04:11.003Z,99971.22
2023-11-20T14:07:14.013Z,99967.06
2023-11-20T14:10:16.915Z,99970.13
2023-11-20T14:13:20.646Z,99972.78
2023-11-20T14:16:23.244Z,99962.44
2023-11-20T14:19:28.758Z,99962.97
2023-11-20T14:22:31.463Z,99975.28
2023-11-20T14:25:34.416Z,99959.41
2023-11-20T14:28:37.067Z,99967.75
2023-11-20T14:31:40.667Z,99969.56
2023-11-20T14:34:48.797Z,99963.81
2023-11-20T14:37:52.661Z,99970.53
2023-11-20T14:40:58.541Z,99964.38
2023-11-20T14:44:00.890Z,99957.16
2023-11-20T14:47:03.386Z,99965.88
2023-11-20T14:50:12.568Z,99972.34
2023-11-20T14:53:16.048Z,99965.91
2023-11-20T14:56:19.134Z,99967.09
2023-11-20T14:59:21.514Z,99966.09
2023-11-20T15:02:23.913Z,99961.78
2023-11-20T15:05:27.446Z,99966.97
2023-11-20T15:08:29.839Z,99963.84
2023-11-20T15:11:32.302Z,99957.78
2023-11-20T15:14:34.751Z,99955.22
2023-11-20T15:17:37.930Z,99964.03
2023-11-20T15:20:40.209Z,99956.72
2023-11-20T15:23:42.475Z,99949.88
2023-11-20T15:26:47.534Z,99951.53
2023-11-20T15:29:49.942Z,99940.69
2023-11-20T15:32:52.233Z,99940.09
2023-11-20T15:35:54.565Z,99952.31
2023-11-20T15:38:57.206Z,99954.66
2023-11-20T15:42:00.836Z,99954.66
2023-11-20T15:45:05.440Z,99950.66
2023-11-20T15:48:07.949Z,99960.22
2023-11-20T15:51:10.301Z,99961.78
2023-11-20T15:54:17.889Z,99971.19
2023-11-20T15:57:23.633Z,99962.97
2023-11-20T16:00:27.093Z,99959.25
2023-11-20T16:03:30.021Z,99955.03
2023-11-20T16:06:32.620Z,99957.19
2023-11-20T16:09:38.311Z,99951.13
2023-11-20T16:12:41.129Z,99948.50
2023-11-20T16:15:47.154Z,99948.28
2023-11-20T16:18:49.700Z,99955.34
2023-11-20T16:21:52.012Z,99950.34
2023-11-20T16:24:54.457Z,99942.13
2023-11-20T16:27:56.872Z,99948.50
2023-11-20T16:30:59.242Z,99945.47
2023-11-20T16:34:03.208Z,99941.50
2023-11-20T16:37:16.859Z,99954.91
2023-11-20T16:40:19.311Z,99953.19
2023-11-20T16:43:21.701Z,99962.56
2023-11-20T16:46:26.253Z,99951.97
2023-11-20T16:49:30.146Z,99965.84
2023-11-20T16:52:32.947Z,99958.97
2023-11-20T16:55:35.295Z,99961.84
2023-11-20T16:58:38.261Z,99967.91
2023-11-20T17:01:40.810Z,99958.63
2023-11-20T17:04:43.309Z,99971.03
2023-11-20T17:07:45.857Z,99967.09
2023-11-20T17:10:48.227Z,99957.13
2023-11-20T17:13:51.137Z,99962.69
2023-11-20T17:16:54.173Z,99945.81
2023-11-20T17:19:57.535Z,99957.19
2023-11-20T17:23:01.011Z,99957.00
2023-11-20T17:26:03.569Z,99955.78
2023-11-20T17:29:06.094Z,99944.44
2023-11-20T17:32:11.300Z,99939.84
2023-11-20T17:35:17.086Z,99928.81
2023-11-20T17:38:19.393Z,99936.56
2023-11-20T17:41:22.263Z,99940.59
2023-11-20T17:44:24.578Z,99943.59
2023-11-20T17:47:29.736Z,99941.50
2023-11-20T17:50:32.464Z,99945.44
2023-11-20T17:53:35.721Z,99944.75
2023-11-20T17:56:42.847Z,99939.25
2023-11-20T17:59:46.216Z,99946.78
2023-11-20T18:02:48.930Z,99953.06
2023-11-20T18:05:51.565Z,99952.34
2023-11-20T18:08:57.325Z,99944.44
2023-11-20T18:11:59.618Z,99947.50
2023-11-20T18:15:01.948Z,99939.50
2023-11-20T18:18:06.081Z,99947.28
2023-11-20T18:21:08.522Z,99936.31
2023-11-20T18:24:14.895Z,99940.94
2023-11-20T18:27:17.446Z,99932.84
2023-11-20T18:30:19.848Z,99929.50
2023-11-20T18:33:23.349Z,99929.38
2023-11-20T18:36:25.613Z,99923.75
2023-11-20T18:39:27.926Z,99936.47
2023-11-20T18:42:30.302Z,99941.53
2023-11-20T18:45:32.662Z,99928.13
2023-11-20T18:48:34.991Z,99930.03
2023-11-20T18:51:37.308Z,99934.91
2023-11-20T18:54:42.246Z,99928.13
2023-11-20T18:57:51.309Z,99929.16
2023-11-20T19:00:53.710Z,99930.75
2023-11-20T19:03:56.078Z,99927.06
2023-11-20T19:06:58.788Z,99931.91
2023-11-20T19:10:01.377Z,99930.69
2023-11-20T19:13:03.740Z,99929.91
2023-11-20T19:16:08.914Z,99933.03
2023-11-20T19:19:11.625Z,99934.41
2023-11-20T19:22:14.092Z,99943.44
2023-11-20T19:25:16.497Z,99946.63
2023-11-20T19:28:21.203Z,99951.38
2023-11-20T19:31:23.602Z,99948.06
2023-11-20T19:34:26.401Z,99949.16
2023-11-20T19:37:28.775Z,99953.63
2023-11-20T19:40:31.197Z,99951.56
2023-11-20T19:43:33.498Z,99948.97
2023-11-20T19:46:38.994Z,99952.66
2023-11-20T19:49:42.199Z,99946.91
2023-11-20T19:52:46.232Z,99945.63
2023-11-20T19:55:49.629Z,99946.19
2023-11-20T19:58:54.406Z,99946.72
2023-11-20T20:02:00.679Z,99937.84
2023-11-20T20:05:04.338Z,99935.44
2023-11-20T20:08:06.831Z,99927.88
2023-11-20T20:11:09.171Z,99933.09
2023-11-20T20:14:11.546Z,99933.09
2023-11-20T20:17:14.393Z,99940.97
2023-11-20T20:20:18.869Z,99949.63
2023-11-20T20:23:21.580Z,99945.94
2023-11-20T20:26:31.763Z,99941.47
2023-11-20T20:29:34.098Z,99944.09
2023-11-20T20:32:37.008Z,99947.81
2023-11-20T20:35:39.352Z,99943.09
2023-11-20T20:38:45.318Z,99951.22
2023-11-20T20:41:47.576Z,99948.06
2023-11-20T20:44:52.062Z,99942.06
2023-11-20T20:47:54.921Z,99944.69
2023-11-20T20:50:57.283Z,99951.22
2023-11-20T20:54:00.339Z,99941.78
2023-11-20T20:57:02.674Z,99937.34
2023-11-20T21:00:14.751Z,99945.44
2023-11-20T21:03:18.821Z,99939.44
2023-11-20T21:06:27.841Z,99937.56
2023-11-20T21:09:30.155Z,99945.72
2023-11-20T21:12:32.482Z,99950.44
2023-11-20T21:15:35.460Z,99945.44
2023-11-20T21:18:37.771Z,99960.91
2023-11-20T21:21:40.122Z,99951.97
2023-11-20T21:24:42.470Z,99958.53
2023-11-20T21:27:45.966Z,99953.00
2023-11-20T21:30:48.319Z,99959.56
2023-11-20T21:33:50.607Z,99962.72
2023-11-20T21:36:52.941Z,99960.63
2023-11-20T21:39:55.242Z,99958.28
2023-11-20T21:42:57.547Z,99955.91
2023-11-20T21:46:00.323Z,99949.91
2023-11-20T21:49:02.684Z,99955.41
2023-11-20T21:52:05.185Z,99951.97
2023-11-20T21:55:07.875Z,99948.31
2023-11-20T21:58:10.670Z,99949.88
2023-11-20T22:01:13.584Z,99953.28
2023-11-20T22:04:16.365Z,99951.72
2023-11-20T22:07:19.034Z,99953.28
2023-11-20T22:10:22.684Z,99954.81
2023-11-20T22:13:25.255Z,99948.28
2023-11-20T22:16:27.674Z,99947.53
2023-11-20T22:19:30.089Z,99950.69
2023-11-20T22:22:36.009Z,99953.59
2023-11-20T22:25:38.357Z,99946.75
2023-11-20T22:28:40.774Z,99936.75
2023-11-20T22:31:43.200Z,99941.94
2023-11-20T22:34:50.003Z,99938.03
2023-11-20T22:38:00.549Z,99948.72
2023-11-20T22:41:06.172Z,99944.47
2023-11-20T22:44:10.350Z,99948.69
2023-11-20T22:47:13.423Z,99952.19
2023-11-20T22:50:17.729Z,99949.09
2023-11-20T22:53:20.091Z,99954.81
2023-11-20T22:56:22.387Z,99954.31
2023-11-20T22:59:25.776Z,99952.44
2023-11-20T23:02:29.401Z,99954.03
2023-11-20T23:05:31.852Z,99957.44
2023-11-20T23:08:37.044Z,99956.44
2023-11-20T23:11:43.973Z,99942.31
2023-11-20T23:14:46.284Z,99937.84
2023-11-20T23:17:48.744Z,99945.72
2023-11-20T23:20:51.053Z,99935.25
2023-11-20T23:23:53.553Z,99931.56
2023-11-20T23:26:56.645Z,99944.16
2023-11-20T23:29:58.941Z,99937.75
2023-11-20T23:33:01.418Z,99938.56
2023-11-20T23:36:04.089Z,99945.13
2023-11-20T23:39:10.903Z,99958.28
2023-11-20T23:42:16.217Z,99955.66
2023-11-20T23:45:19.119Z,99960.41
2023-11-20T23:48:21.871Z,99972.44
2023-11-20T23:51:24.719Z,99976.34
2023-11-20T23:54:27.102Z,99969.00
2023-11-20T23:57:29.458Z,99970.34
